sensor_id;sensor_type;location;lat;lon;timestamp;temperature;humidity
27747;DHT22;15138;51.012;4.692;2024-03-06T00:02:13;7.30;1.00
27747;DHT22;15138;51.012;4.692;2024-03-06T00:04:43;7.30;1.00
27747;DHT22;15138;51.012;4.692;2024-03-06T00:07:11;7.30;1.00
27747;DHT22;15138;51.012;4.692;2024-03-06T00:09:40;7.30;1.00
27747;DHT22;15138;51.012;4.692;2024-03-06T00:12:09;7.30;1.00
27747;DHT22;15138;51.012;4.692;2024-03-06T00:14:37;7.20;1.00
27747;DHT22;15138;51.012;4.692;2024-03-06T00:17:05;7.10;1.00
27747;DHT22;15138;51.012;4.692;2024-03-06T00:19:34;7.10;1.00
27747;DHT22;15138;51.012;4.692;2024-03-06T00:22:03;7.20;1.00
27747;DHT22;15138;51.012;4.692;2024-03-06T00:24:31;7.10;1.00
27747;DHT22;15138;51.012;4.692;2024-03-06T00:27:01;7.10;1.00
27747;DHT22;15138;51.012;4.692;2024-03-06T00:29:31;7.00;1.00
27747;DHT22;15138;51.012;4.692;2024-03-06T00:31:59;7.00;1.00
27747;DHT22;15138;51.012;4.692;2024-03-06T00:34:27;7.00;1.00
27747;DHT22;15138;51.012;4.692;2024-03-06T00:36:56;7.00;1.00
27747;DHT22;15138;51.012;4.692;2024-03-06T00:39:24;6.90;1.00
27747;DHT22;15138;51.012;4.692;2024-03-06T00:41:53;6.90;1.00
27747;DHT22;15138;51.012;4.692;2024-03-06T00:44:22;6.90;1.00
27747;DHT22;15138;51.012;4.692;2024-03-06T00:46:50;6.90;1.00
27747;DHT22;15138;51.012;4.692;2024-03-06T00:49:19;6.90;1.00
27747;DHT22;15138;51.012;4.692;2024-03-06T00:51:47;6.90;1.00
27747;DHT22;15138;51.012;4.692;2024-03-06T00:54:16;6.90;1.00
27747;DHT22;15138;51.012;4.692;2024-03-06T00:56:44;6.80;1.00
27747;DHT22;15138;51.012;4.692;2024-03-06T00:59:12;6.70;1.00
27747;DHT22;15138;51.012;4.692;2024-03-06T01:01:42;6.70;1.00
27747;DHT22;15138;51.012;4.692;2024-03-06T01:04:10;6.70;1.00
27747;DHT22;15138;51.012;4.692;2024-03-06T01:06:38;6.70;1.00
27747;DHT22;15138;51.012;4.692;2024-03-06T01:09:06;6.70;1.00
27747;DHT22;15138;51.012;4.692;2024-03-06T01:11:35;6.70;1.00
27747;DHT22;15138;51.012;4.692;2024-03-06T01:14:04;6.70;1.00
27747;DHT22;15138;51.012;4.692;2024-03-06T01:16:32;6.70;1.00
27747;DHT22;15138;51.012;4.692;2024-03-06T01:19:01;6.60;1.00
27747;DHT22;15138;51.012;4.692;2024-03-06T01:21:32;6.60;99.90
27747;DHT22;15138;51.012;4.692;2024-03-06T01:24:01;6.60;99.90
27747;DHT22;15138;51.012;4.692;2024-03-06T01:26:30;6.60;99.90
27747;DHT22;15138;51.012;4.692;2024-03-06T01:28:58;6.50;1.00
27747;DHT22;15138;51.012;4.692;2024-03-06T01:31:26;6.50;99.90
27747;DHT22;15138;51.012;4.692;2024-03-06T01:33:54;6.50;99.90
27747;DHT22;15138;51.012;4.692;2024-03-06T01:36:24;6.50;99.90
27747;DHT22;15138;51.012;4.692;2024-03-06T01:38:52;6.50;1.00
27747;DHT22;15138;51.012;4.692;2024-03-06T01:41:20;6.40;1.00
27747;DHT22;15138;51.012;4.692;2024-03-06T01:43:48;6.40;1.00
27747;DHT22;15138;51.012;4.692;2024-03-06T01:46:17;6.40;99.90
27747;DHT22;15138;51.012;4.692;2024-03-06T01:48:45;6.30;1.00
27747;DHT22;15138;51.012;4.692;2024-03-06T01:51:13;6.30;1.00
27747;DHT22;15138;51.012;4.692;2024-03-06T01:53:43;6.10;99.90
27747;DHT22;15138;51.012;4.692;2024-03-06T01:56:12;6.30;99.90
27747;DHT22;15138;51.012;4.692;2024-03-06T01:58:45;6.30;99.90
27747;DHT22;15138;51.012;4.692;2024-03-06T02:01:16;6.20;99.90
27747;DHT22;15138;51.012;4.692;2024-03-06T02:03:46;6.30;99.90
27747;DHT22;15138;51.012;4.692;2024-03-06T02:06:15;6.30;99.90
27747;DHT22;15138;51.012;4.692;2024-03-06T02:08:47;6.20;99.90
27747;DHT22;15138;51.012;4.692;2024-03-06T02:11:16;6.20;99.90
27747;DHT22;15138;51.012;4.692;2024-03-06T02:13:45;6.20;99.90
27747;DHT22;15138;51.012;4.692;2024-03-06T02:16:13;6.20;99.90
27747;DHT22;15138;51.012;4.692;2024-03-06T02:18:51;6.20;99.90
27747;DHT22;15138;51.012;4.692;2024-03-06T02:21:22;6.20;1.00
27747;DHT22;15138;51.012;4.692;2024-03-06T02:23:50;6.10;1.00
27747;DHT22;15138;51.012;4.692;2024-03-06T02:26:19;6.10;1.00
27747;DHT22;15138;51.012;4.692;2024-03-06T02:28:48;6.00;1.00
27747;DHT22;15138;51.012;4.692;2024-03-06T02:31:18;6.00;1.00
27747;DHT22;15138;51.012;4.692;2024-03-06T02:33:47;5.90;1.00
27747;DHT22;15138;51.012;4.692;2024-03-06T02:36:16;5.90;1.00
27747;DHT22;15138;51.012;4.692;2024-03-06T02:38:46;5.90;1.00
27747;DHT22;15138;51.012;4.692;2024-03-06T02:41:15;5.80;1.00
27747;DHT22;15138;51.012;4.692;2024-03-06T02:43:44;5.80;99.90
27747;DHT22;15138;51.012;4.692;2024-03-06T02:46:13;5.90;99.90
27747;DHT22;15138;51.012;4.692;2024-03-06T02:48:41;5.70;99.90
27747;DHT22;15138;51.012;4.692;2024-03-06T02:51:09;5.70;99.90
27747;DHT22;15138;51.012;4.692;2024-03-06T02:53:37;5.60;99.90
27747;DHT22;15138;51.012;4.692;2024-03-06T02:56:07;5.60;99.90
27747;DHT22;15138;51.012;4.692;2024-03-06T02:58:35;5.70;99.90
27747;DHT22;15138;51.012;4.692;2024-03-06T03:01:04;5.50;99.90
27747;DHT22;15138;51.012;4.692;2024-03-06T03:03:32;5.50;99.90
27747;DHT22;15138;51.012;4.692;2024-03-06T03:06:00;5.40;99.90
27747;DHT22;15138;51.012;4.692;2024-03-06T03:08:29;5.40;99.90
27747;DHT22;15138;51.012;4.692;2024-03-06T03:10:57;5.40;99.90
27747;DHT22;15138;51.012;4.692;2024-03-06T03:13:27;5.50;99.90
27747;DHT22;15138;51.012;4.692;2024-03-06T03:15:55;5.40;99.90
27747;DHT22;15138;51.012;4.692;2024-03-06T03:18:23;5.30;99.90
27747;DHT22;15138;51.012;4.692;2024-03-06T03:20:51;5.20;99.90
27747;DHT22;15138;51.012;4.692;2024-03-06T03:23:20;5.20;99.90
27747;DHT22;15138;51.012;4.692;2024-03-06T03:25:49;5.20;99.90
27747;DHT22;15138;51.012;4.692;2024-03-06T03:28:17;5.10;99.90
27747;DHT22;15138;51.012;4.692;2024-03-06T03:30:47;5.10;99.90
27747;DHT22;15138;51.012;4.692;2024-03-06T03:33:15;5.10;99.90
27747;DHT22;15138;51.012;4.692;2024-03-06T03:35:43;5.00;99.90
27747;DHT22;15138;51.012;4.692;2024-03-06T03:38:11;5.00;99.90
27747;DHT22;15138;51.012;4.692;2024-03-06T03:40:40;5.00;99.90
27747;DHT22;15138;51.012;4.692;2024-03-06T03:43:08;4.90;99.90
27747;DHT22;15138;51.012;4.692;2024-03-06T03:45:36;5.00;99.90
27747;DHT22;15138;51.012;4.692;2024-03-06T03:48:07;5.00;99.90
27747;DHT22;15138;51.012;4.692;2024-03-06T03:50:35;4.80;99.90
27747;DHT22;15138;51.012;4.692;2024-03-06T03:53:03;4.80;99.90
27747;DHT22;15138;51.012;4.692;2024-03-06T03:55:32;4.70;99.90
27747;DHT22;15138;51.012;4.692;2024-03-06T03:58:00;4.70;99.90
27747;DHT22;15138;51.012;4.692;2024-03-06T04:00:28;4.70;99.90
27747;DHT22;15138;51.012;4.692;2024-03-06T04:02:58;4.60;99.90
27747;DHT22;15138;51.012;4.692;2024-03-06T04:05:27;4.70;99.90
27747;DHT22;15138;51.012;4.692;2024-03-06T04:07:56;4.70;99.90
27747;DHT22;15138;51.012;4.692;2024-03-06T04:10:24;4.60;99.90
27747;DHT22;15138;51.012;4.692;2024-03-06T04:12:52;4.50;99.90
27747;DHT22;15138;51.012;4.692;2024-03-06T04:15:21;4.50;99.90
27747;DHT22;15138;51.012;4.692;2024-03-06T04:17:50;4.40;99.90
27747;DHT22;15138;51.012;4.692;2024-03-06T04:20:19;4.40;99.90
27747;DHT22;15138;51.012;4.692;2024-03-06T04:22:49;4.50;99.90
27747;DHT22;15138;51.012;4.692;2024-03-06T04:25:19;4.30;99.90
27747;DHT22;15138;51.012;4.692;2024-03-06T04:27:47;4.20;99.90
27747;DHT22;15138;51.012;4.692;2024-03-06T04:30:15;4.20;99.90
27747;DHT22;15138;51.012;4.692;2024-03-06T04:32:43;4.20;99.90
27747;DHT22;15138;51.012;4.692;2024-03-06T04:35:12;4.10;99.90
27747;DHT22;15138;51.012;4.692;2024-03-06T04:37:40;4.10;99.90
27747;DHT22;15138;51.012;4.692;2024-03-06T04:40:10;4.20;99.90
27747;DHT22;15138;51.012;4.692;2024-03-06T04:42:42;4.10;99.90
27747;DHT22;15138;51.012;4.692;2024-03-06T04:45:11;4.00;99.90
27747;DHT22;15138;51.012;4.692;2024-03-06T04:47:40;3.90;99.90
27747;DHT22;15138;51.012;4.692;2024-03-06T04:50:08;4.00;99.90
27747;DHT22;15138;51.012;4.692;2024-03-06T04:52:38;3.90;99.90
27747;DHT22;15138;51.012;4.692;2024-03-06T04:55:07;3.80;99.90
27747;DHT22;15138;51.012;4.692;2024-03-06T04:57:38;3.80;99.90
27747;DHT22;15138;51.012;4.692;2024-03-06T05:00:08;3.80;99.90
27747;DHT22;15138;51.012;4.692;2024-03-06T05:02:37;3.80;99.90
27747;DHT22;15138;51.012;4.692;2024-03-06T05:05:22;3.70;99.90
27747;DHT22;15138;51.012;4.692;2024-03-06T05:08:09;3.80;99.90
27747;DHT22;15138;51.012;4.692;2024-03-06T05:10:54;3.80;99.90
27747;DHT22;15138;51.012;4.692;2024-03-06T05:13:41;3.60;99.90
27747;DHT22;15138;51.012;4.692;2024-03-06T05:16:27;3.60;99.90
27747;DHT22;15138;51.012;4.692;2024-03-06T05:19:12;3.60;99.90
27747;DHT22;15138;51.012;4.692;2024-03-06T05:21:58;3.50;99.90
27747;DHT22;15138;51.012;4.692;2024-03-06T05:24:44;3.60;99.90
27747;DHT22;15138;51.012;4.692;2024-03-06T05:27:30;3.50;99.90
27747;DHT22;15138;51.012;4.692;2024-03-06T05:30:17;3.40;99.90
27747;DHT22;15138;51.012;4.692;2024-03-06T05:33:03;3.50;99.90
27747;DHT22;15138;51.012;4.692;2024-03-06T05:35:49;3.40;99.90
27747;DHT22;15138;51.012;4.692;2024-03-06T05:38:35;3.40;99.90
27747;DHT22;15138;51.012;4.692;2024-03-06T05:41:20;3.40;99.90
27747;DHT22;15138;51.012;4.692;2024-03-06T05:44:06;3.30;99.90
27747;DHT22;15138;51.012;4.692;2024-03-06T05:46:54;3.40;99.90
27747;DHT22;15138;51.012;4.692;2024-03-06T05:49:40;3.40;99.90
27747;DHT22;15138;51.012;4.692;2024-03-06T05:52:25;3.30;99.90
27747;DHT22;15138;51.012;4.692;2024-03-06T05:55:11;3.30;99.90
27747;DHT22;15138;51.012;4.692;2024-03-06T05:57:56;3.20;99.90
27747;DHT22;15138;51.012;4.692;2024-03-06T06:00:37;3.20;99.90
27747;DHT22;15138;51.012;4.692;2024-03-06T06:03:07;3.20;99.90
27747;DHT22;15138;51.012;4.692;2024-03-06T06:05:38;3.10;99.90
27747;DHT22;15138;51.012;4.692;2024-03-06T06:08:07;3.10;99.90
27747;DHT22;15138;51.012;4.692;2024-03-06T06:10:36;3.20;99.90
27747;DHT22;15138;51.012;4.692;2024-03-06T06:13:04;3.10;99.90
27747;DHT22;15138;51.012;4.692;2024-03-06T06:15:32;3.10;99.90
27747;DHT22;15138;51.012;4.692;2024-03-06T06:18:01;3.20;99.90
27747;DHT22;15138;51.012;4.692;2024-03-06T06:20:30;3.10;99.90
27747;DHT22;15138;51.012;4.692;2024-03-06T06:22:59;3.10;99.90
27747;DHT22;15138;51.012;4.692;2024-03-06T06:25:27;3.00;99.90
27747;DHT22;15138;51.012;4.692;2024-03-06T06:27:55;3.20;99.90
27747;DHT22;15138;51.012;4.692;2024-03-06T06:30:23;3.10;99.90
27747;DHT22;15138;51.012;4.692;2024-03-06T06:32:51;3.10;99.90
27747;DHT22;15138;51.012;4.692;2024-03-06T06:35:20;3.10;99.90
27747;DHT22;15138;51.012;4.692;2024-03-06T06:37:50;3.20;99.90
27747;DHT22;15138;51.012;4.692;2024-03-06T06:40:18;3.10;99.90
27747;DHT22;15138;51.012;4.692;2024-03-06T06:42:48;3.10;99.90
27747;DHT22;15138;51.012;4.692;2024-03-06T06:45:18;3.10;99.90
27747;DHT22;15138;51.012;4.692;2024-03-06T06:47:47;3.20;99.90
27747;DHT22;15138;51.012;4.692;2024-03-06T06:50:15;3.20;99.90
27747;DHT22;15138;51.012;4.692;2024-03-06T06:52:44;3.30;99.90
27747;DHT22;15138;51.012;4.692;2024-03-06T06:55:13;3.50;1.00
27747;DHT22;15138;51.012;4.692;2024-03-06T06:57:41;3.70;1.00
27747;DHT22;15138;51.012;4.692;2024-03-06T07:00:11;3.70;1.00
27747;DHT22;15138;51.012;4.692;2024-03-06T07:02:40;4.00;99.90
27747;DHT22;15138;51.012;4.692;2024-03-06T07:05:09;4.30;99.90
27747;DHT22;15138;51.012;4.692;2024-03-06T07:07:38;4.50;1.00
27747;DHT22;15138;51.012;4.692;2024-03-06T07:10:07;4.60;99.90
27747;DHT22;15138;51.012;4.692;2024-03-06T07:12:37;4.90;8.20
27747;DHT22;15138;51.012;4.692;2024-03-06T07:15:05;5.40;99.90
27747;DHT22;15138;51.012;4.692;2024-03-06T07:17:34;5.70;99.90
27747;DHT22;15138;51.012;4.692;2024-03-06T07:20:03;6.00;99.90
27747;DHT22;15138;51.012;4.692;2024-03-06T07:25:02;6.70;98.40
27747;DHT22;15138;51.012;4.692;2024-03-06T07:27:32;7.10;99.90
27747;DHT22;15138;51.012;4.692;2024-03-06T07:30:02;7.30;99.90
27747;DHT22;15138;51.012;4.692;2024-03-06T07:32:30;7.30;1.00
27747;DHT22;15138;51.012;4.692;2024-03-06T07:34:58;7.60;1.00
27747;DHT22;15138;51.012;4.692;2024-03-06T07:37:27;7.90;1.00
27747;DHT22;15138;51.012;4.692;2024-03-06T07:39:55;7.90;1.00
27747;DHT22;15138;51.012;4.692;2024-03-06T07:42:24;8.00;99.90
27747;DHT22;15138;51.012;4.692;2024-03-06T07:44:52;8.20;1.00
27747;DHT22;15138;51.012;4.692;2024-03-06T07:47:21;8.80;99.90
27747;DHT22;15138;51.012;4.692;2024-03-06T07:49:50;8.90;99.90
27747;DHT22;15138;51.012;4.692;2024-03-06T07:52:18;9.30;99.90
27747;DHT22;15138;51.012;4.692;2024-03-06T07:54:46;9.90;99.90
27747;DHT22;15138;51.012;4.692;2024-03-06T07:57:14;10.10;99.90
27747;DHT22;15138;51.012;4.692;2024-03-06T07:59:43;10.20;99.90
27747;DHT22;15138;51.012;4.692;2024-03-06T08:02:11;10.50;24.60
27747;DHT22;15138;51.012;4.692;2024-03-06T08:04:40;11.00;99.90
27747;DHT22;15138;51.012;4.692;2024-03-06T08:07:08;11.20;99.90
27747;DHT22;15138;51.012;4.692;2024-03-06T08:12:05;11.60;1.00
27747;DHT22;15138;51.012;4.692;2024-03-06T08:14:34;11.70;99.90
27747;DHT22;15138;51.012;4.692;2024-03-06T08:17:02;11.70;74.90
27747;DHT22;15138;51.012;4.692;2024-03-06T08:19:31;12.10;1.00
27747;DHT22;15138;51.012;4.692;2024-03-06T08:22:00;12.40;99.90
27747;DHT22;15138;51.012;4.692;2024-03-06T08:24:32;12.50;30.50
27747;DHT22;15138;51.012;4.692;2024-03-06T08:27:00;13.30;1.00
27747;DHT22;15138;51.012;4.692;2024-03-06T08:31:58;13.20;99.80
27747;DHT22;15138;51.012;4.692;2024-03-06T08:41:55;14.20;1.00
27747;DHT22;15138;51.012;4.692;2024-03-06T08:44:25;14.30;1.00
27747;DHT22;15138;51.012;4.692;2024-03-06T08:46:53;14.60;1.00
27747;DHT22;15138;51.012;4.692;2024-03-06T08:49:21;14.70;1.00
27747;DHT22;15138;51.012;4.692;2024-03-06T08:51:49;14.90;1.00
27747;DHT22;15138;51.012;4.692;2024-03-06T08:54:18;14.50;99.90
27747;DHT22;15138;51.012;4.692;2024-03-06T08:56:47;14.80;99.90
27747;DHT22;15138;51.012;4.692;2024-03-06T08:59:15;15.30;99.90
27747;DHT22;15138;51.012;4.692;2024-03-06T09:01:44;15.40;99.90
27747;DHT22;15138;51.012;4.692;2024-03-06T09:06:43;16.50;1.00
27747;DHT22;15138;51.012;4.692;2024-03-06T09:14:12;16.10;99.90
27747;DHT22;15138;51.012;4.692;2024-03-06T09:16:40;16.30;99.90
27747;DHT22;15138;51.012;4.692;2024-03-06T09:21:36;17.20;1.00
27747;DHT22;15138;51.012;4.692;2024-03-06T09:26:33;18.10;1.00
27747;DHT22;15138;51.012;4.692;2024-03-06T09:29:02;18.60;99.90
27747;DHT22;15138;51.012;4.692;2024-03-06T09:31:32;19.40;1.00
27747;DHT22;15138;51.012;4.692;2024-03-06T09:34:00;19.70;92.70
27747;DHT22;15138;51.012;4.692;2024-03-06T09:36:28;19.70;99.90
27747;DHT22;15138;51.012;4.692;2024-03-06T09:38:57;20.10;78.30
27747;DHT22;15138;51.012;4.692;2024-03-06T09:41:25;20.20;1.00
27747;DHT22;15138;51.012;4.692;2024-03-06T09:43:53;20.00;89.80
27747;DHT22;15138;51.012;4.692;2024-03-06T09:46:22;21.40;99.90
27747;DHT22;15138;51.012;4.692;2024-03-06T09:51:20;22.50;1.00
27747;DHT22;15138;51.012;4.692;2024-03-06T09:56:19;23.30;1.00
27747;DHT22;15138;51.012;4.692;2024-03-06T10:01:17;24.00;1.00
27747;DHT22;15138;51.012;4.692;2024-03-06T10:03:45;24.20;1.00
27747;DHT22;15138;51.012;4.692;2024-03-06T10:06:15;23.80;1.00
27747;DHT22;15138;51.012;4.692;2024-03-06T10:21:09;22.40;1.00
27747;DHT22;15138;51.012;4.692;2024-03-06T10:23:39;22.30;11.90
27747;DHT22;15138;51.012;4.692;2024-03-06T11:16:29;27.50;99.90
27747;DHT22;15138;51.012;4.692;2024-03-06T11:21:38;27.20;1.00
27747;DHT22;15138;51.012;4.692;2024-03-06T11:34:34;27.60;99.90
27747;DHT22;15138;51.012;4.692;2024-03-06T11:39:38;25.00;1.00
27747;DHT22;15138;51.012;4.692;2024-03-06T11:42:11;24.30;1.00
27747;DHT22;15138;51.012;4.692;2024-03-06T12:09:49;25.40;1.00
27747;DHT22;15138;51.012;4.692;2024-03-06T12:12:17;26.40;1.00
27747;DHT22;15138;51.012;4.692;2024-03-06T12:19:55;28.20;1.00
27747;DHT22;15138;51.012;4.692;2024-03-06T12:22:25;28.30;1.00
27747;DHT22;15138;51.012;4.692;2024-03-06T12:24:58;25.00;1.00
27747;DHT22;15138;51.012;4.692;2024-03-06T12:27:27;25.00;1.00
27747;DHT22;15138;51.012;4.692;2024-03-06T12:34:57;27.30;1.00
27747;DHT22;15138;51.012;4.692;2024-03-06T12:37:31;27.30;1.00
27747;DHT22;15138;51.012;4.692;2024-03-06T12:40:01;28.40;1.00
27747;DHT22;15138;51.012;4.692;2024-03-06T12:42:31;28.40;17.10
27747;DHT22;15138;51.012;4.692;2024-03-06T12:45:00;28.20;1.00
27747;DHT22;15138;51.012;4.692;2024-03-06T12:47:31;28.00;1.00
27747;DHT22;15138;51.012;4.692;2024-03-06T12:50:00;28.20;1.00
27747;DHT22;15138;51.012;4.692;2024-03-06T12:52:28;28.30;99.90
27747;DHT22;15138;51.012;4.692;2024-03-06T12:54:56;29.00;99.90
27747;DHT22;15138;51.012;4.692;2024-03-06T12:57:25;28.70;99.90
27747;DHT22;15138;51.012;4.692;2024-03-06T12:59:54;27.90;99.90
27747;DHT22;15138;51.012;4.692;2024-03-06T13:02:23;28.20;99.90
27747;DHT22;15138;51.012;4.692;2024-03-06T13:04:52;28.80;99.90
27747;DHT22;15138;51.012;4.692;2024-03-06T13:07:21;28.90;1.00
27747;DHT22;15138;51.012;4.692;2024-03-06T13:09:49;29.20;1.00
27747;DHT22;15138;51.012;4.692;2024-03-06T13:12:17;28.70;1.00
27747;DHT22;15138;51.012;4.692;2024-03-06T13:14:46;28.50;1.00
27747;DHT22;15138;51.012;4.692;2024-03-06T13:17:14;29.00;99.90
27747;DHT22;15138;51.012;4.692;2024-03-06T13:19:42;28.10;99.90
27747;DHT22;15138;51.012;4.692;2024-03-06T13:22:12;27.90;99.90
27747;DHT22;15138;51.012;4.692;2024-03-06T13:24:40;28.30;99.90
27747;DHT22;15138;51.012;4.692;2024-03-06T13:27:11;28.20;99.90
27747;DHT22;15138;51.012;4.692;2024-03-06T13:29:39;28.40;99.90
27747;DHT22;15138;51.012;4.692;2024-03-06T13:32:07;29.60;99.90
27747;DHT22;15138;51.012;4.692;2024-03-06T13:34:35;29.90;1.00
27747;DHT22;15138;51.012;4.692;2024-03-06T13:37:04;29.40;99.90
27747;DHT22;15138;51.012;4.692;2024-03-06T13:39:35;29.40;26.20
27747;DHT22;15138;51.012;4.692;2024-03-06T13:42:03;29.10;1.00
27747;DHT22;15138;51.012;4.692;2024-03-06T13:44:32;29.20;99.90
27747;DHT22;15138;51.012;4.692;2024-03-06T13:47:01;30.30;1.00
27747;DHT22;15138;51.012;4.692;2024-03-06T13:49:37;30.30;1.00
27747;DHT22;15138;51.012;4.692;2024-03-06T13:52:07;30.60;1.00
27747;DHT22;15138;51.012;4.692;2024-03-06T13:54:39;30.40;38.10
27747;DHT22;15138;51.012;4.692;2024-03-06T13:57:08;29.80;99.90
27747;DHT22;15138;51.012;4.692;2024-03-06T13:59:37;30.00;99.90
27747;DHT22;15138;51.012;4.692;2024-03-06T14:02:06;30.90;1.00
27747;DHT22;15138;51.012;4.692;2024-03-06T14:07:04;31.30;99.90
27747;DHT22;15138;51.012;4.692;2024-03-06T14:09:32;31.40;1.00
27747;DHT22;15138;51.012;4.692;2024-03-06T14:12:02;31.20;1.00
27747;DHT22;15138;51.012;4.692;2024-03-06T14:14:31;31.40;99.90
27747;DHT22;15138;51.012;4.692;2024-03-06T14:16:59;31.30;1.00
27747;DHT22;15138;51.012;4.692;2024-03-06T14:19:28;31.20;1.00
27747;DHT22;15138;51.012;4.692;2024-03-06T14:21:56;31.10;28.60
27747;DHT22;15138;51.012;4.692;2024-03-06T14:24:30;31.40;1.00
27747;DHT22;15138;51.012;4.692;2024-03-06T14:26:58;30.70;1.00
27747;DHT22;15138;51.012;4.692;2024-03-06T14:29:27;29.70;1.00
27747;DHT22;15138;51.012;4.692;2024-03-06T14:31:56;29.20;1.00
27747;DHT22;15138;51.012;4.692;2024-03-06T14:34:24;28.60;1.00
27747;DHT22;15138;51.012;4.692;2024-03-06T14:36:52;28.00;1.00
27747;DHT22;15138;51.012;4.692;2024-03-06T14:39:21;28.30;1.00
27747;DHT22;15138;51.012;4.692;2024-03-06T14:41:51;27.50;1.00
27747;DHT22;15138;51.012;4.692;2024-03-06T14:44:20;27.00;1.00
27747;DHT22;15138;51.012;4.692;2024-03-06T14:46:49;26.70;1.00
27747;DHT22;15138;51.012;4.692;2024-03-06T14:49:17;26.30;1.00
27747;DHT22;15138;51.012;4.692;2024-03-06T14:51:46;26.00;1.00
27747;DHT22;15138;51.012;4.692;2024-03-06T14:54:14;25.70;1.00
27747;DHT22;15138;51.012;4.692;2024-03-06T14:56:42;25.50;99.90
27747;DHT22;15138;51.012;4.692;2024-03-06T14:59:11;25.10;3.80
27747;DHT22;15138;51.012;4.692;2024-03-06T15:01:39;25.00;59.00
27747;DHT22;15138;51.012;4.692;2024-03-06T15:04:09;24.40;79.50
27747;DHT22;15138;51.012;4.692;2024-03-06T15:06:38;24.30;99.90
27747;DHT22;15138;51.012;4.692;2024-03-06T15:09:07;23.70;34.30
27747;DHT22;15138;51.012;4.692;2024-03-06T15:11:38;23.50;99.90
27747;DHT22;15138;51.012;4.692;2024-03-06T15:14:07;22.90;1.00
27747;DHT22;15138;51.012;4.692;2024-03-06T15:16:37;22.30;1.00
27747;DHT22;15138;51.012;4.692;2024-03-06T15:19:07;22.30;1.00
27747;DHT22;15138;51.012;4.692;2024-03-06T15:21:36;21.70;1.00
27747;DHT22;15138;51.012;4.692;2024-03-06T15:24:05;21.10;99.90
27747;DHT22;15138;51.012;4.692;2024-03-06T15:26:33;21.00;99.90
27747;DHT22;15138;51.012;4.692;2024-03-06T15:29:02;20.80;1.00
27747;DHT22;15138;51.012;4.692;2024-03-06T15:31:32;20.60;1.00
27747;DHT22;15138;51.012;4.692;2024-03-06T15:34:00;20.50;94.30
27747;DHT22;15138;51.012;4.692;2024-03-06T15:41:29;20.10;99.90
27747;DHT22;15138;51.012;4.692;2024-03-06T15:43:57;19.70;99.90
27747;DHT22;15138;51.012;4.692;2024-03-06T15:46:25;19.60;99.90
27747;DHT22;15138;51.012;4.692;2024-03-06T15:48:54;19.40;99.90
27747;DHT22;15138;51.012;4.692;2024-03-06T15:51:22;19.10;99.90
27747;DHT22;15138;51.012;4.692;2024-03-06T15:53:50;19.00;99.90
27747;DHT22;15138;51.012;4.692;2024-03-06T16:01:18;18.50;1.00
27747;DHT22;15138;51.012;4.692;2024-03-06T16:06:14;18.10;1.00
27747;DHT22;15138;51.012;4.692;2024-03-06T16:08:46;17.90;1.00
27747;DHT22;15138;51.012;4.692;2024-03-06T16:11:15;17.90;1.00
27747;DHT22;15138;51.012;4.692;2024-03-06T16:13:45;17.80;1.00
27747;DHT22;15138;51.012;4.692;2024-03-06T16:16:13;17.80;1.00
27747;DHT22;15138;51.012;4.692;2024-03-06T16:18:41;17.50;1.00
27747;DHT22;15138;51.012;4.692;2024-03-06T16:21:10;17.40;1.00
27747;DHT22;15138;51.012;4.692;2024-03-06T16:23:38;17.40;1.00
27747;DHT22;15138;51.012;4.692;2024-03-06T16:26:06;17.40;1.00
27747;DHT22;15138;51.012;4.692;2024-03-06T16:28:35;17.50;1.00
27747;DHT22;15138;51.012;4.692;2024-03-06T16:31:05;17.40;1.00
27747;DHT22;15138;51.012;4.692;2024-03-06T16:36:03;17.40;1.00
27747;DHT22;15138;51.012;4.692;2024-03-06T16:38:35;17.10;1.00
27747;DHT22;15138;51.012;4.692;2024-03-06T16:41:03;17.10;1.00
27747;DHT22;15138;51.012;4.692;2024-03-06T16:43:32;16.90;1.00
27747;DHT22;15138;51.012;4.692;2024-03-06T16:46:00;16.70;1.00
27747;DHT22;15138;51.012;4.692;2024-03-06T16:48:30;16.50;1.00
27747;DHT22;15138;51.012;4.692;2024-03-06T16:50:58;16.40;1.00
27747;DHT22;15138;51.012;4.692;2024-03-06T16:53:26;16.40;1.00
27747;DHT22;15138;51.012;4.692;2024-03-06T16:55:55;16.20;1.00
27747;DHT22;15138;51.012;4.692;2024-03-06T16:58:23;16.20;1.00
27747;DHT22;15138;51.012;4.692;2024-03-06T17:00:51;15.90;1.00
27747;DHT22;15138;51.012;4.692;2024-03-06T17:03:19;15.70;40.60
27747;DHT22;15138;51.012;4.692;2024-03-06T17:05:49;15.50;1.00
27747;DHT22;15138;51.012;4.692;2024-03-06T17:10:46;15.30;99.90
27747;DHT22;15138;51.012;4.692;2024-03-06T17:13:16;15.10;99.90
27747;DHT22;15138;51.012;4.692;2024-03-06T17:20:42;14.60;1.00
27747;DHT22;15138;51.012;4.692;2024-03-06T17:23:11;14.80;3.60
27747;DHT22;15138;51.012;4.692;2024-03-06T17:25:40;14.50;99.90
27747;DHT22;15138;51.012;4.692;2024-03-06T17:28:08;14.30;99.90
27747;DHT22;15138;51.012;4.692;2024-03-06T17:30:36;14.20;1.00
27747;DHT22;15138;51.012;4.692;2024-03-06T17:33:04;14.10;1.00
27747;DHT22;15138;51.012;4.692;2024-03-06T17:35:33;14.00;1.00
27747;DHT22;15138;51.012;4.692;2024-03-06T17:38:01;13.80;1.00
27747;DHT22;15138;51.012;4.692;2024-03-06T17:40:31;13.60;1.00
27747;DHT22;15138;51.012;4.692;2024-03-06T17:42:59;13.50;1.00
27747;DHT22;15138;51.012;4.692;2024-03-06T17:45:27;13.40;1.00
27747;DHT22;15138;51.012;4.692;2024-03-06T17:47:56;13.40;1.00
27747;DHT22;15138;51.012;4.692;2024-03-06T17:50:25;13.30;1.00
27747;DHT22;15138;51.012;4.692;2024-03-06T17:52:53;13.10;1.00
27747;DHT22;15138;51.012;4.692;2024-03-06T17:55:22;13.00;1.00
27747;DHT22;15138;51.012;4.692;2024-03-06T17:57:51;12.90;1.00
27747;DHT22;15138;51.012;4.692;2024-03-06T18:00:20;12.90;1.00
27747;DHT22;15138;51.012;4.692;2024-03-06T18:02:48;12.80;1.00
27747;DHT22;15138;51.012;4.692;2024-03-06T18:05:19;12.70;1.00
27747;DHT22;15138;51.012;4.692;2024-03-06T18:07:47;12.60;1.00
27747;DHT22;15138;51.012;4.692;2024-03-06T18:10:16;12.50;51.20
27747;DHT22;15138;51.012;4.692;2024-03-06T18:12:45;12.40;1.00
27747;DHT22;15138;51.012;4.692;2024-03-06T18:15:14;12.30;1.00
27747;DHT22;15138;51.012;4.692;2024-03-06T18:20:12;12.10;99.90
27747;DHT22;15138;51.012;4.692;2024-03-06T18:22:40;12.00;73.90
27747;DHT22;15138;51.012;4.692;2024-03-06T18:27:37;11.90;99.90
27747;DHT22;15138;51.012;4.692;2024-03-06T18:30:06;11.70;1.00
27747;DHT22;15138;51.012;4.692;2024-03-06T18:32:37;11.70;1.00
27747;DHT22;15138;51.012;4.692;2024-03-06T18:35:06;11.70;24.00
27747;DHT22;15138;51.012;4.692;2024-03-06T18:37:34;11.50;1.00
27747;DHT22;15138;51.012;4.692;2024-03-06T18:42:32;11.30;99.90
27747;DHT22;15138;51.012;4.692;2024-03-06T18:45:00;11.30;1.00
27747;DHT22;15138;51.012;4.692;2024-03-06T18:47:27;11.20;1.00
27747;DHT22;15138;51.012;4.692;2024-03-06T18:49:57;11.20;1.00
27747;DHT22;15138;51.012;4.692;2024-03-06T18:52:25;11.10;1.00
27747;DHT22;15138;51.012;4.692;2024-03-06T18:54:54;11.00;1.00
27747;DHT22;15138;51.012;4.692;2024-03-06T18:57:24;10.90;1.00
27747;DHT22;15138;51.012;4.692;2024-03-06T18:59:53;10.70;1.00
27747;DHT22;15138;51.012;4.692;2024-03-06T19:02:21;10.70;1.00